Terminal Aerodrome Forecast
Issued by NWS

Home | Current Version | Previous Version | Text Only | Print | Product List | Glossary On
Versions: 1 2 3 4 5 6 7 8 9 10 11 12 13 14 15 16 17 18 19 20 21 22 23
000
FTUS46 KOTX 210706 AAA
TAFSFF
TAF AMD
KSFF 210706Z 2107/2206 00000KT P6SM BCFG SCT030 BKN080
      TEMPO 2107/2111 BKN030
     FM211100 VRB03KT P6SM VCSH FEW001 OVC028
     FM211400 22005KT P6SM -RA BKN025 OVC060
     FM211700 20006KT P6SM -SHRA BKN030 OVC060
     FM212100 29004KT P6SM VCSH BKN035 OVC050
     FM220000 02004KT P6SM SCT050 BKN100=

USA.gov is the U.S. government's official web portal to all federal, state and local government web resources and services.